createdAt,value
2019-03-20T00:00:18.005Z,69.12
2019-03-20T00:02:48.365Z,69.00
2019-03-20T00:05:16.473Z,68.88
2019-03-20T00:07:44.778Z,69.27
2019-03-20T00:10:12.951Z,69.73
2019-03-20T00:12:41.268Z,70.25
2019-03-20T00:15:10.550Z,69.57
2019-03-20T00:17:38.828Z,69.36
2019-03-20T00:20:08.396Z,68.90
2019-03-20T00:22:36.485Z,69.34
2019-03-20T00:25:04.685Z,69.00
2019-03-20T00:27:33.838Z,69.28
2019-03-20T00:30:01.880Z,69.84
2019-03-20T00:32:30.580Z,70.49
2019-03-20T00:35:01.322Z,70.15
2019-03-20T00:37:29.264Z,70.41
2019-03-20T00:39:59.292Z,70.69
2019-03-20T00:42:27.518Z,70.42
2019-03-20T00:44:56.240Z,71.00
2019-03-20T00:47:24.403Z,71.44
2019-03-20T00:49:52.711Z,72.19
2019-03-20T00:52:20.806Z,72.24
2019-03-20T00:54:49.201Z,72.71
2019-03-20T00:57:17.664Z,72.88
2019-03-20T00:59:45.625Z,73.46
2019-03-20T01:02:13.612Z,72.64
2019-03-20T01:04:41.600Z,72.57
2019-03-20T01:07:10.276Z,72.23
2019-03-20T01:09:38.356Z,72.32
2019-03-20T01:12:06.590Z,71.83
2019-03-20T01:14:34.860Z,72.27
2019-03-20T01:17:03.042Z,72.20
2019-03-20T01:19:30.998Z,72.39
2019-03-20T01:21:59.259Z,72.19
2019-03-20T01:24:27.594Z,72.50
2019-03-20T01:26:55.641Z,72.72
2019-03-20T01:29:25.220Z,72.46
2019-03-20T01:31:53.250Z,72.69
2019-03-20T01:34:24.238Z,72.48
2019-03-20T01:36:58.352Z,73.12
2019-03-20T01:39:26.735Z,73.43
2019-03-20T01:41:55.200Z,73.53
2019-03-20T01:44:23.259Z,73.79
2019-03-20T01:46:51.477Z,73.54
2019-03-20T01:49:19.526Z,73.98
2019-03-20T01:51:47.859Z,73.67
2019-03-20T01:54:16.169Z,73.76
2019-03-20T01:56:44.691Z,73.64
2019-03-20T01:59:12.691Z,73.80
2019-03-20T02:01:41.584Z,73.97
2019-03-20T02:04:09.636Z,74.75
2019-03-20T02:06:37.604Z,74.62
2019-03-20T02:09:06.701Z,74.98
2019-03-20T02:11:34.671Z,74.94
2019-03-20T02:14:04.810Z,74.85
2019-03-20T02:16:35.099Z,74.73
2019-03-20T02:19:03.232Z,75.14
2019-03-20T02:21:31.204Z,75.52
2019-03-20T02:23:59.159Z,75.42
2019-03-20T02:26:27.288Z,75.38
2019-03-20T02:28:55.387Z,75.76
2019-03-20T02:31:23.380Z,75.52
2019-03-20T02:33:51.317Z,75.11
2019-03-20T02:36:19.634Z,75.28
2019-03-20T02:38:48.985Z,75.23
2019-03-20T02:41:16.906Z,75.13
2019-03-20T02:43:45.195Z,74.50
2019-03-20T02:46:13.399Z,75.58
2019-03-20T02:48:41.346Z,75.60
2019-03-20T02:51:09.622Z,76.06
2019-03-20T02:53:53.533Z,75.38
2019-03-20T02:56:21.544Z,75.34
2019-03-20T02:58:49.567Z,75.52
2019-03-20T03:01:39.379Z,75.86
2019-03-20T03:04:08.660Z,75.92
2019-03-20T03:06:36.832Z,76.19
2019-03-20T03:09:07.356Z,75.58
2019-03-20T03:11:35.346Z,74.59
2019-03-20T03:14:03.335Z,74.37
2019-03-20T03:16:31.849Z,74.53
2019-03-20T03:18:59.842Z,74.09
2019-03-20T03:21:28.131Z,75.52
2019-03-20T03:23:56.350Z,76.33
2019-03-20T03:26:24.694Z,76.75
2019-03-20T03:28:52.785Z,76.57
2019-03-20T03:31:21.137Z,77.00
2019-03-20T03:33:49.076Z,77.35
2019-03-20T03:36:21.510Z,77.63
2019-03-20T03:38:47.383Z,77.69
2019-03-20T03:41:15.302Z,77.79
2019-03-20T03:43:43.266Z,77.33
2019-03-20T03:46:12.056Z,77.92
2019-03-20T03:49:04.506Z,77.75
2019-03-20T03:51:54.249Z,77.73
2019-03-20T03:54:22.316Z,78.02
2019-03-20T03:56:50.230Z,78.41
2019-03-20T03:59:25.030Z,78.19
2019-03-20T04:01:56.925Z,78.41
2019-03-20T04:04:26.837Z,79.12
2019-03-20T04:06:56.743Z,79.00
2019-03-20T04:09:25.628Z,79.12
2019-03-20T04:11:53.657Z,79.31
2019-03-20T04:14:21.867Z,78.39
2019-03-20T04:16:49.848Z,79.02
2019-03-20T04:19:18.267Z,78.97
2019-03-20T04:21:46.269Z,79.18
2019-03-20T04:24:14.410Z,79.02
2019-03-20T04:26:42.319Z,79.25
2019-03-20T04:29:10.568Z,79.31
2019-03-20T04:31:39.672Z,79.07
2019-03-20T04:34:08.198Z,79.22
2019-03-20T04:36:47.241Z,79.46
2019-03-20T04:39:07.659Z,80.00
2019-03-20T04:41:35.642Z,79.83
2019-03-20T04:44:04.999Z,79.82
2019-03-20T04:46:34.205Z,79.89
2019-03-20T04:49:02.262Z,79.74
2019-03-20T04:51:30.394Z,80.34
2019-03-20T04:54:06.298Z,80.13
2019-03-20T04:56:48.439Z,79.75
2019-03-20T04:59:13.951Z,80.15
2019-03-20T05:01:43.008Z,80.13
2019-03-20T05:04:13.540Z,79.83
2019-03-20T05:06:57.982Z,80.11
2019-03-20T05:09:17.940Z,80.21
2019-03-20T05:11:46.034Z,80.10
2019-03-20T05:14:14.425Z,80.74
2019-03-20T05:16:42.701Z,80.84
2019-03-20T05:19:10.803Z,81.16
2019-03-20T05:21:38.720Z,80.28
2019-03-20T05:24:06.750Z,79.79
2019-03-20T05:26:34.742Z,80.06
2019-03-20T05:29:02.790Z,80.20
2019-03-20T05:31:31.080Z,79.92
2019-03-20T05:34:00.129Z,80.00
2019-03-20T05:36:28.468Z,79.96
2019-03-20T05:38:56.718Z,79.93
2019-03-20T05:41:24.742Z,80.11
2019-03-20T05:43:53.003Z,80.47
2019-03-20T05:46:21.016Z,80.61
2019-03-20T05:48:48.995Z,80.55
2019-03-20T05:51:17.104Z,80.48
2019-03-20T05:53:45.075Z,79.53
2019-03-20T05:56:13.113Z,79.33
2019-03-20T05:58:41.404Z,79.15
2019-03-20T06:01:09.479Z,78.79
2019-03-20T06:03:37.654Z,78.47
2019-03-20T06:06:05.802Z,78.11
2019-03-20T06:08:34.103Z,77.93
2019-03-20T06:11:02.095Z,78.47
2019-03-20T06:13:30.074Z,78.05
2019-03-20T06:15:58.343Z,77.92
2019-03-20T06:18:26.281Z,77.09
2019-03-20T06:20:54.340Z,76.32
2019-03-20T06:23:22.326Z,75.74
2019-03-20T06:25:51.626Z,75.94
2019-03-20T06:28:20.932Z,75.22
2019-03-20T06:30:49.239Z,75.02
2019-03-20T06:33:17.412Z,75.32
2019-03-20T06:35:45.555Z,75.53
2019-03-20T06:38:13.690Z,74.97
2019-03-20T06:40:41.802Z,74.96
2019-03-20T06:43:09.741Z,74.50
2019-03-20T06:45:38.112Z,73.43
2019-03-20T06:48:06.281Z,73.50
2019-03-20T06:50:34.607Z,72.89
2019-03-20T06:53:02.596Z,71.96
2019-03-20T06:55:30.701Z,71.81
2019-03-20T06:57:58.646Z,72.71
2019-03-20T07:01:04.529Z,70.64
2019-03-20T07:04:11.424Z,69.74
2019-03-20T07:07:43.505Z,68.84
2019-03-20T07:10:40.406Z,68.17
2019-03-20T07:13:08.555Z,69.16
2019-03-20T07:15:36.735Z,69.05
2019-03-20T07:18:05.018Z,67.62
2019-03-20T07:20:33.034Z,66.32
2019-03-20T07:23:01.064Z,66.37
2019-03-20T07:25:29.155Z,65.51
2019-03-20T07:27:57.194Z,65.74
2019-03-20T07:30:25.178Z,65.38
2019-03-20T07:32:54.088Z,64.08
2019-03-20T07:35:22.409Z,64.61
2019-03-20T07:37:55.819Z,64.19
2019-03-20T07:40:20.338Z,64.79
2019-03-20T07:42:48.332Z,65.30
2019-03-20T07:45:17.454Z,64.78
2019-03-20T07:47:45.456Z,63.73
2019-03-20T07:50:15.254Z,63.38
2019-03-20T07:52:43.325Z,62.81
2019-03-20T07:55:11.950Z,62.95
2019-03-20T07:57:40.208Z,62.16
2019-03-20T08:00:11.621Z,61.90
2019-03-20T08:02:39.668Z,61.95
2019-03-20T08:05:09.571Z,61.29
2019-03-20T08:07:37.664Z,60.37
2019-03-20T08:10:09.489Z,60.18
2019-03-20T08:12:38.026Z,60.38
2019-03-20T08:15:09.369Z,60.96
2019-03-20T08:17:37.856Z,59.74
2019-03-20T08:20:08.857Z,60.06
2019-03-20T08:22:37.120Z,60.25
2019-03-20T08:25:05.572Z,59.25
2019-03-20T08:27:33.601Z,59.21
2019-03-20T08:30:02.536Z,58.73
2019-03-20T08:32:32.099Z,57.95
2019-03-20T08:35:00.332Z,57.40
2019-03-20T08:37:28.930Z,56.43
2019-03-20T08:39:56.993Z,56.23
2019-03-20T08:42:25.153Z,55.82
2019-03-20T08:44:53.197Z,55.31
2019-03-20T08:47:21.293Z,55.17
2019-03-20T08:49:49.264Z,55.09
2019-03-20T08:52:17.318Z,53.41
2019-03-20T08:54:45.327Z,52.47
2019-03-20T08:57:13.424Z,51.56
2019-03-20T08:59:41.533Z,51.84
2019-03-20T09:02:09.668Z,51.06
2019-03-20T09:04:40.105Z,50.10
2019-03-20T09:07:08.651Z,48.51
2019-03-20T09:09:36.991Z,48.78
2019-03-20T09:12:05.067Z,48.50
2019-03-20T09:14:33.320Z,49.22
2019-03-20T09:17:01.349Z,47.88
2019-03-20T09:19:29.430Z,46.90
2019-03-20T09:21:57.543Z,45.44
2019-03-20T09:24:25.653Z,45.16
2019-03-20T09:26:54.252Z,44.00
2019-03-20T09:29:24.211Z,44.02
2019-03-20T09:31:52.302Z,44.64
2019-03-20T09:34:20.383Z,44.37
2019-03-20T09:36:48.392Z,43.83
2019-03-20T09:39:16.545Z,43.82
2019-03-20T09:41:44.822Z,42.14
2019-03-20T09:44:12.785Z,40.57
2019-03-20T09:46:40.866Z,40.58
2019-03-20T09:49:10.121Z,40.33
2019-03-20T09:51:40.424Z,39.60
2019-03-20T09:54:08.606Z,39.14
2019-03-20T09:56:36.670Z,39.49
2019-03-20T09:59:05.175Z,40.35
2019-03-20T10:01:33.494Z,39.47
2019-03-20T10:04:01.528Z,40.08
2019-03-20T10:06:30.288Z,39.75
2019-03-20T10:08:58.894Z,39.11
2019-03-20T10:11:26.871Z,38.30
2019-03-20T10:13:55.226Z,39.29
2019-03-20T10:16:23.643Z,40.06
2019-03-20T10:18:51.952Z,40.64
2019-03-20T10:21:19.973Z,40.13
2019-03-20T10:23:48.314Z,38.53
2019-03-20T10:26:16.554Z,37.67
2019-03-20T10:28:44.593Z,38.14
2019-03-20T10:31:12.585Z,38.09
2019-03-20T10:33:40.601Z,37.42
2019-03-20T10:36:13.029Z,36.86
2019-03-20T10:38:41.293Z,36.02
2019-03-20T10:41:09.372Z,36.40
2019-03-20T10:43:38.714Z,36.81
2019-03-20T10:46:07.390Z,35.77
2019-03-20T10:48:35.418Z,35.71
2019-03-20T10:51:03.516Z,34.46
2019-03-20T10:53:31.904Z,35.05
2019-03-20T10:56:02.146Z,35.52
2019-03-20T10:58:32.127Z,35.77
2019-03-20T11:01:00.743Z,34.94
2019-03-20T11:03:29.116Z,35.41
2019-03-20T11:05:57.256Z,34.93
2019-03-20T11:08:25.340Z,34.23
2019-03-20T11:10:53.348Z,31.88
2019-03-20T11:13:21.720Z,32.02
2019-03-20T11:15:49.725Z,31.70
2019-03-20T11:18:17.795Z,32.24
2019-03-20T11:20:45.754Z,31.87
2019-03-20T11:23:14.409Z,31.85
2019-03-20T11:25:42.448Z,31.69
2019-03-20T11:28:10.560Z,31.24
2019-03-20T11:30:38.584Z,30.84
2019-03-20T11:33:06.698Z,30.53
2019-03-20T11:35:34.821Z,30.59
2019-03-20T11:38:02.820Z,30.41
2019-03-20T11:40:31.070Z,31.19
2019-03-20T11:42:59.069Z,30.89
2019-03-20T11:45:27.273Z,30.91
2019-03-20T11:47:55.571Z,30.70
2019-03-20T11:50:36.854Z,30.06
2019-03-20T11:53:05.312Z,31.01
2019-03-20T11:55:33.472Z,30.99
2019-03-20T11:58:02.190Z,31.08
2019-03-20T12:00:30.396Z,31.32
2019-03-20T12:02:58.629Z,30.69
2019-03-20T12:05:26.652Z,30.25
2019-03-20T12:07:54.650Z,29.70
2019-03-20T12:10:22.688Z,30.36
2019-03-20T12:12:51.025Z,30.91
2019-03-20T12:15:19.011Z,30.97
2019-03-20T12:17:47.164Z,31.37
2019-03-20T12:20:17.096Z,31.45
2019-03-20T12:22:53.880Z,31.71
2019-03-20T12:25:26.158Z,31.26
2019-03-20T12:27:54.193Z,31.87
2019-03-20T12:30:24.760Z,31.83
2019-03-20T12:32:52.901Z,30.92
2019-03-20T12:35:23.045Z,30.35
2019-03-20T12:37:52.449Z,31.12
2019-03-20T12:40:23.057Z,31.54
2019-03-20T12:42:51.368Z,31.82
2019-03-20T12:45:21.718Z,31.47
2019-03-20T12:47:49.797Z,32.13
2019-03-20T12:50:18.072Z,31.70
2019-03-20T12:52:46.109Z,31.37
2019-03-20T12:55:15.456Z,31.69
2019-03-20T12:57:43.688Z,31.23
2019-03-20T13:00:15.391Z,30.67
2019-03-20T13:02:43.799Z,30.55
2019-03-20T13:05:12.259Z,30.76
2019-03-20T13:07:40.347Z,30.40
2019-03-20T13:10:10.898Z,30.24
2019-03-20T13:12:38.884Z,28.94
2019-03-20T13:15:09.942Z,28.89
2019-03-20T13:17:38.141Z,29.17
2019-03-20T13:20:07.546Z,28.84
2019-03-20T13:22:35.921Z,28.41
2019-03-20T13:25:05.102Z,26.67
2019-03-20T13:27:34.009Z,26.18
2019-03-20T13:30:02.190Z,24.81
2019-03-20T13:32:31.614Z,22.99
2019-03-20T13:34:59.940Z,21.76
2019-03-20T13:37:29.228Z,21.34
2019-03-20T13:39:57.632Z,20.91
2019-03-20T13:42:25.640Z,20.33
2019-03-20T13:44:54.799Z,19.71
2019-03-20T13:47:23.517Z,18.46
2019-03-20T13:49:58.644Z,19.31
2019-03-20T13:52:26.716Z,18.86
2019-03-20T13:54:54.732Z,18.78
2019-03-20T13:57:22.694Z,18.26
2019-03-20T13:59:50.862Z,17.54
2019-03-20T14:02:19.280Z,18.31
2019-03-20T14:04:47.592Z,16.70
2019-03-20T14:07:15.667Z,18.22
2019-03-20T14:09:43.845Z,17.40
2019-03-20T14:12:11.913Z,16.44
2019-03-20T14:14:40.020Z,15.55
2019-03-20T14:17:08.843Z,15.62
2019-03-20T14:19:37.014Z,15.58
2019-03-20T14:22:05.765Z,15.19
2019-03-20T14:24:35.999Z,14.23
2019-03-20T14:27:03.751Z,15.56
2019-03-20T14:29:31.971Z,15.28
2019-03-20T14:31:59.938Z,14.35
2019-03-20T14:34:28.052Z,13.44
2019-03-20T14:36:56.074Z,13.28
2019-03-20T14:39:24.328Z,12.61
2019-03-20T14:41:52.872Z,12.67
2019-03-20T14:44:21.075Z,12.79
2019-03-20T14:46:51.959Z,12.44
2019-03-20T14:49:20.253Z,13.08
2019-03-20T14:51:48.668Z,13.04
2019-03-20T14:54:16.638Z,13.85
2019-03-20T14:56:44.637Z,14.29
2019-03-20T14:59:12.643Z,12.69
2019-03-20T15:01:40.661Z,12.96
2019-03-20T15:04:08.940Z,11.76
2019-03-20T15:06:36.979Z,12.68
2019-03-20T15:09:07.783Z,13.83
2019-03-20T15:11:35.787Z,14.66
2019-03-20T15:14:04.941Z,14.36
2019-03-20T15:16:33.257Z,13.76
2019-03-20T15:19:01.261Z,14.11
2019-03-20T15:21:29.561Z,14.21
2019-03-20T15:23:57.788Z,15.05
2019-03-20T15:26:26.045Z,15.96
2019-03-20T15:28:54.063Z,15.06
2019-03-20T15:31:22.188Z,15.40
2019-03-20T15:33:50.586Z,14.85
2019-03-20T15:36:18.613Z,14.65
2019-03-20T15:38:46.883Z,15.42
2019-03-20T15:41:14.876Z,16.83
2019-03-20T15:43:42.820Z,15.85
2019-03-20T15:46:10.953Z,15.25
2019-03-20T15:48:39.198Z,14.86
2019-03-20T15:51:07.289Z,15.15
2019-03-20T15:53:35.424Z,15.55
2019-03-20T15:56:03.568Z,14.90
2019-03-20T15:58:31.606Z,17.08
2019-03-20T16:00:59.621Z,15.78
2019-03-20T16:03:29.522Z,15.91
2019-03-20T16:05:57.910Z,16.10
2019-03-20T16:08:26.371Z,16.64
2019-03-20T16:10:54.388Z,17.39
2019-03-20T16:13:22.358Z,16.92
2019-03-20T16:15:50.533Z,15.78
2019-03-20T16:18:18.712Z,15.97
2019-03-20T16:20:46.758Z,16.55
2019-03-20T16:23:15.271Z,18.17
2019-03-20T16:25:43.763Z,18.28
2019-03-20T16:28:12.098Z,17.72
2019-03-20T16:30:40.574Z,16.74
2019-03-20T16:33:09.101Z,16.76
2019-03-20T16:35:37.275Z,17.96
2019-03-20T16:38:07.060Z,18.65
2019-03-20T16:40:35.330Z,18.09
2019-03-20T16:43:03.323Z,19.02
2019-03-20T16:45:31.312Z,20.84
2019-03-20T16:47:59.335Z,23.89
2019-03-20T16:50:27.393Z,24.25
2019-03-20T16:52:55.503Z,23.71
2019-03-20T16:55:23.589Z,24.36
2019-03-20T16:57:55.069Z,25.59
2019-03-20T17:00:26.376Z,27.32
2019-03-20T17:02:54.620Z,28.92
2019-03-20T17:05:22.812Z,30.42
2019-03-20T17:07:50.809Z,30.98
2019-03-20T17:10:31.245Z,31.38
2019-03-20T17:12:59.828Z,31.71
2019-03-20T17:15:30.092Z,31.87
2019-03-20T17:17:58.066Z,32.60
2019-03-20T17:20:26.139Z,34.13
2019-03-20T17:22:54.564Z,34.51
2019-03-20T17:25:22.767Z,34.94
2019-03-20T17:27:50.852Z,36.35
2019-03-20T17:30:25.327Z,35.65
2019-03-20T17:32:53.481Z,36.07
2019-03-20T17:35:21.837Z,36.42
2019-03-20T17:37:54.476Z,37.42
2019-03-20T17:40:22.824Z,36.27
2019-03-20T17:42:51.302Z,37.07
2019-03-20T17:45:20.050Z,37.90
2019-03-20T17:47:49.027Z,37.67
2019-03-20T17:50:26.176Z,38.16
2019-03-20T17:52:54.327Z,38.40
2019-03-20T17:55:22.774Z,38.69
2019-03-20T17:57:52.696Z,38.23
2019-03-20T18:00:35.745Z,39.12
2019-03-20T18:03:04.681Z,38.31
2019-03-20T18:05:33.183Z,39.39
2019-03-20T18:08:01.900Z,39.13
2019-03-20T18:10:35.586Z,39.98
2019-03-20T18:13:06.215Z,40.44
2019-03-20T18:15:35.054Z,40.05
2019-03-20T18:18:06.309Z,41.43
2019-03-20T18:20:38.314Z,40.68
2019-03-20T18:23:08.184Z,40.97
2019-03-20T18:25:39.404Z,41.01
2019-03-20T18:28:08.214Z,40.63
2019-03-20T18:30:40.009Z,42.95
2019-03-20T18:33:12.352Z,41.60
2019-03-20T18:35:41.810Z,42.29
2019-03-20T18:38:09.813Z,42.53
2019-03-20T18:40:37.893Z,42.65
2019-03-20T18:43:06.501Z,42.85
2019-03-20T18:45:34.498Z,44.21
2019-03-20T18:48:02.744Z,42.35
2019-03-20T18:50:30.935Z,42.85
2019-03-20T18:52:58.902Z,42.83
2019-03-20T18:55:27.238Z,43.91
2019-03-20T18:57:55.761Z,43.27
2019-03-20T19:00:24.655Z,44.49
2019-03-20T19:02:53.928Z,44.05
2019-03-20T19:06:02.625Z,44.11
2019-03-20T19:08:31.095Z,44.28
2019-03-20T19:10:59.358Z,45.92
2019-03-20T19:13:27.716Z,43.99
2019-03-20T19:15:56.227Z,45.26
2019-03-20T19:18:24.569Z,45.95
2019-03-20T19:20:52.849Z,45.19
2019-03-20T19:23:21.270Z,45.74
2019-03-20T19:25:49.468Z,47.45
2019-03-20T19:28:17.469Z,46.29
2019-03-20T19:30:45.563Z,47.92
2019-03-20T19:33:13.650Z,47.69
2019-03-20T19:35:42.979Z,47.89
2019-03-20T19:38:11.050Z,47.57
2019-03-20T19:40:39.531Z,47.78
2019-03-20T19:43:07.701Z,47.07
2019-03-20T19:45:35.742Z,47.48
2019-03-20T19:48:03.896Z,48.52
2019-03-20T19:50:31.921Z,46.75
2019-03-20T19:53:00.118Z,46.59
2019-03-20T19:55:28.549Z,46.42
2019-03-20T19:57:56.477Z,47.10
2019-03-20T20:00:24.847Z,46.96
2019-03-20T20:02:52.994Z,47.12
2019-03-20T20:05:21.041Z,46.78
2019-03-20T20:07:49.105Z,47.68
2019-03-20T20:10:17.273Z,47.82
2019-03-20T20:12:45.361Z,48.33
2019-03-20T20:15:16.820Z,48.42
2019-03-20T20:17:47.052Z,48.29
2019-03-20T20:20:17.599Z,48.93
2019-03-20T20:22:46.084Z,49.29
2019-03-20T20:25:14.274Z,49.67
2019-03-20T20:27:42.653Z,49.48
2019-03-20T20:30:14.147Z,50.18
2019-03-20T20:32:42.339Z,49.88
2019-03-20T20:35:11.295Z,51.22
2019-03-20T20:37:39.628Z,50.35
2019-03-20T20:40:10.452Z,50.06
2019-03-20T20:42:43.265Z,50.35
2019-03-20T20:45:11.440Z,50.41
2019-03-20T20:47:39.770Z,50.83
2019-03-20T20:50:08.297Z,50.99
2019-03-20T20:52:36.282Z,51.39
2019-03-20T20:55:05.570Z,51.65
2019-03-20T20:57:33.670Z,52.01
2019-03-20T21:00:02.005Z,52.06
2019-03-20T21:02:30.132Z,52.60
2019-03-20T21:04:58.665Z,53.03
2019-03-20T21:07:26.728Z,53.60
2019-03-20T21:09:55.494Z,53.72
2019-03-20T21:12:23.540Z,53.97
2019-03-20T21:14:51.949Z,54.44
2019-03-20T21:17:41.476Z,54.26
2019-03-20T21:20:10.313Z,54.20
2019-03-20T21:23:49.657Z,54.30
2019-03-20T21:26:19.469Z,55.17
2019-03-20T21:29:47.722Z,54.90
2019-03-20T21:32:32.965Z,55.06
2019-03-20T21:36:12.498Z,57.19
2019-03-20T21:38:41.963Z,57.26
2019-03-20T21:42:30.052Z,57.83
2019-03-20T21:45:32.831Z,56.70
2019-03-20T21:48:01.838Z,58.72
2019-03-20T21:51:14.343Z,57.50
2019-03-20T21:54:43.882Z,57.29
2019-03-20T21:58:00.493Z,55.77
2019-03-20T22:01:35.532Z,56.83
2019-03-20T22:04:04.455Z,58.31
2019-03-20T22:07:04.675Z,56.95
2019-03-20T22:10:31.870Z,59.07
2019-03-20T22:13:34.761Z,59.20
2019-03-20T22:17:03.192Z,57.06
2019-03-20T22:20:39.052Z,56.43
2019-03-20T22:24:00.853Z,57.44
2019-03-20T22:27:35.935Z,57.35
2019-03-20T22:30:06.053Z,57.16
2019-03-20T22:33:30.388Z,57.40
2019-03-20T22:36:11.582Z,57.77
2019-03-20T22:39:45.970Z,60.65
2019-03-20T22:42:34.149Z,61.57
2019-03-20T22:46:23.792Z,59.99
2019-03-20T22:49:46.851Z,60.46
2019-03-20T22:52:50.359Z,59.41
2019-03-20T22:55:57.481Z,60.40
2019-03-20T22:58:45.010Z,60.28
2019-03-20T23:01:19.492Z,60.36
2019-03-20T23:04:02.059Z,60.13
2019-03-20T23:06:31.207Z,61.39
2019-03-20T23:09:00.250Z,60.80
2019-03-20T23:11:29.222Z,60.61
2019-03-20T23:13:58.024Z,60.92
2019-03-20T23:16:27.942Z,61.10
2019-03-20T23:18:57.239Z,61.11
2019-03-20T23:21:26.027Z,61.19
2019-03-20T23:23:54.800Z,61.35
2019-03-20T23:26:24.133Z,61.46
2019-03-20T23:28:53.620Z,61.79
2019-03-20T23:31:22.526Z,61.81
2019-03-20T23:33:52.056Z,62.10
2019-03-20T23:36:20.933Z,62.97
2019-03-20T23:38:50.926Z,62.94
2019-03-20T23:41:20.837Z,62.55
2019-03-20T23:43:53.216Z,62.97
2019-03-20T23:46:20.556Z,63.07
2019-03-20T23:48:58.111Z,63.28
2019-03-20T23:51:27.360Z,63.10
2019-03-20T23:53:57.810Z,63.42
2019-03-20T23:56:29.452Z,64.11
2019-03-20T23:58:59.251Z,64.30
